Time;durP1;ratioP1;P1;durP2;ratioP2;P2;SDS_P1;SDS_P2;PMS_P1;PMS_P2;Temp;Humidity;BMP_temperature;BMP_pressure;BME280_temperature;BME280_humidity;BME280_pressure;Samples;Min_cycle;Max_cycle;Signal;HPM_P1;HPM_P2
2022/01/28 00:04:00;;;;;;;12.90;2.20;;;;;;;7.89;97.56;101858.63;8357652;28;20045;-64
2022/01/28 00:08:01;;;;;;;15.15;2.60;;;;;;;7.86;97.81;101866.91;8377154;28;20024;-64
2022/01/28 00:12:01;;;;;;;18.27;3.22;;;;;;;7.76;97.58;101871.09;8383061;28;20127;-64
2022/01/28 00:16:41;;;;;;;17.92;3.33;;;;;;;7.68;97.83;101877.84;8355728;28;20045;-64
2022/01/28 00:20:59;;;;;;;18.40;2.75;;;;;;;7.60;97.38;101875.59;8337593;28;20089;-64
2022/01/28 00:38:01;;;;;;;17.92;2.25;;;;;;;7.26;98.54;101953.81;8330015;28;20049;-64
2022/01/28 00:42:02;;;;;;;12.93;2.00;;;;;;;7.14;98.82;101959.84;8327159;28;20041;-64
2022/01/28 00:46:02;;;;;;;15.23;2.10;;;;;;;6.96;100.00;101971.63;8314219;28;20415;-64
2022/01/28 00:50:04;;;;;;;22.25;2.88;;;;;;;7.02;100.00;101971.28;8327231;28;20504;-64
2022/01/28 00:54:04;;;;;;;18.13;2.97;;;;;;;7.05;99.15;101979.19;8319169;28;20120;-64
2022/01/28 00:58:05;;;;;;;21.50;3.90;;;;;;;7.03;99.73;101989.16;8303357;28;20041;-64
2022/01/28 01:02:05;;;;;;;19.95;2.50;;;;;;;6.98;100.00;101995.75;8299368;28;20036;-64
2022/01/28 01:06:06;;;;;;;18.00;3.42;;;;;;;7.05;99.89;101992.63;8301240;28;20045;-64
2022/01/28 01:10:07;;;;;;;14.45;2.30;;;;;;;7.04;100.00;101998.97;8299678;28;20034;-64
2022/01/28 01:14:08;;;;;;;18.80;2.65;;;;;;;7.03;99.95;101999.91;8298577;28;20042;-64
2022/01/28 01:18:18;;;;;;;13.15;2.28;;;;;;;6.90;99.30;102008.72;8299363;28;20578;-64
2022/01/28 01:22:19;;;;;;;15.23;2.17;;;;;;;6.85;98.75;102019.72;8299496;28;20065;-64
2022/01/28 01:26:28;;;;;;;18.58;2.10;;;;;;;6.79;98.71;102021.84;8304974;28;20096;-64
2022/01/28 01:30:32;;;;;;;21.80;2.80;;;;;;;6.72;98.13;102026.69;8297347;28;20098;-64
2022/01/28 01:34:32;;;;;;;11.63;2.20;;;;;;;6.61;98.63;102025.47;8291847;28;20152;-64
2022/01/28 01:38:36;;;;;;;12.82;1.60;;;;;;;6.54;98.56;102033.00;8323167;28;20091;-64
2022/01/28 01:43:05;;;;;;;17.42;2.55;;;;;;;6.49;99.19;102029.66;8308659;28;20046;-64
2022/01/28 01:52:22;;;;;;;22.55;2.65;;;;;;;6.43;98.18;102024.59;8321768;28;21447;-64
2022/01/28 01:55:41;;;;;;;13.80;2.15;;;;;;;6.40;97.76;102035.50;8324631;28;20412;-64
2022/01/28 01:59:42;;;;;;;12.52;2.15;;;;;;;6.45;97.46;102049.59;8321436;28;20352;-64
2022/01/28 02:03:43;;;;;;;15.02;2.30;;;;;;;6.45;97.04;102054.94;8321739;28;20033;-64
2022/01/28 02:07:45;;;;;;;11.30;1.45;;;;;;;6.48;96.45;102053.91;8323036;28;20042;-64
2022/01/28 02:11:46;;;;;;;11.43;1.60;;;;;;;6.43;96.11;102059.53;8322641;28;20068;-64
2022/01/28 02:15:46;;;;;;;14.82;2.10;;;;;;;6.43;96.08;102050.63;8319809;28;20038;-64
2022/01/28 02:19:46;;;;;;;18.67;2.75;;;;;;;6.40;96.81;102064.19;8322307;28;20033;-63
2022/01/28 02:23:51;;;;;;;20.15;3.03;;;;;;;6.44;97.20;102069.34;8323564;28;20123;-64
2022/01/28 02:27:53;;;;;;;15.85;2.42;;;;;;;6.36;97.83;102087.66;8326346;28;20034;-64
2022/01/28 02:31:55;;;;;;;14.18;2.03;;;;;;;6.10;99.14;102089.88;8314187;28;20111;-64
2022/01/28 02:36:02;;;;;;;18.55;3.28;;;;;;;6.01;100.00;102080.44;8308568;28;20038;-64
2022/01/28 02:40:04;;;;;;;9.88;1.75;;;;;;;6.11;100.00;102092.47;8324917;28;20029;-64
2022/01/28 02:48:26;;;;;;;18.27;2.03;;;;;;;5.97;100.00;102106.56;8352834;27;20406;-64
2022/01/28 02:52:36;;;;;;;21.77;3.10;;;;;;;6.06;100.00;102105.25;8352858;28;20045;-63
2022/01/28 02:56:39;;;;;;;14.88;1.75;;;;;;;6.07;100.00;102108.81;8352668;28;20067;-64
2022/01/28 03:00:41;;;;;;;18.52;2.42;;;;;;;6.01;100.00;102104.59;8353756;28;20041;-64
2022/01/28 03:05:05;;;;;;;14.90;2.50;;;;;;;5.82;100.00;102103.72;8356385;28;20505;-64
2022/01/28 03:09:13;;;;;;;19.33;2.53;;;;;;;5.67;100.00;102107.06;8355650;28;20064;-64
2022/01/28 03:13:28;;;;;;;20.27;3.33;;;;;;;5.71;100.00;102108.69;8356173;28;20055;-64
2022/01/28 03:18:40;;;;;;;18.08;2.25;;;;;;;5.81;100.00;102112.69;8356741;28;20103;-64
2022/01/28 03:21:58;;;;;;;19.48;2.15;;;;;;;6.03;99.47;102108.06;8346265;28;20037;-64
2022/01/28 03:25:58;;;;;;;13.43;1.77;;;;;;;6.13;97.83;102117.41;8352866;28;20037;-64
2022/01/28 03:29:58;;;;;;;19.08;2.60;;;;;;;6.13;97.42;102117.41;8355006;28;20045;-64
2022/01/28 03:33:59;;;;;;;15.45;2.30;;;;;;;5.96;98.09;102126.28;8358635;28;20040;-64
2022/01/28 03:38:02;;;;;;;16.08;2.45;;;;;;;5.78;100.00;102136.97;8360120;28;20025;-64
2022/01/28 03:42:03;;;;;;;16.73;2.70;;;;;;;5.75;100.00;102139.78;8360814;28;20148;-64
2022/01/28 03:46:04;;;;;;;29.80;3.50;;;;;;;5.73;100.00;102133.63;8337196;28;20041;-64
2022/01/28 03:50:05;;;;;;;12.25;2.40;;;;;;;5.71;100.00;102151.63;8329414;28;20044;-64
2022/01/28 03:54:05;;;;;;;24.60;2.78;;;;;;;5.61;100.00;102148.47;8328207;28;20029;-64
2022/01/28 03:58:06;;;;;;;18.98;2.55;;;;;;;5.58;100.00;102166.53;8315988;28;20048;-64
2022/01/28 04:02:07;;;;;;;18.05;2.47;;;;;;;5.47;100.00;102174.19;8305215;28;20041;-64
2022/01/28 04:11:27;;;;;;;16.27;2.25;;;;;;;5.38;100.00;102174.59;8307118;28;20034;-64
2022/01/28 04:19:08;;;;;;;23.02;2.70;;;;;;;5.26;100.00;102183.16;8331675;28;20045;-64
2022/01/28 04:23:09;;;;;;;23.67;3.50;;;;;;;5.26;100.00;102189.41;8337911;28;20082;-64
2022/01/28 04:27:09;;;;;;;17.98;2.30;;;;;;;5.36;100.00;102193.41;8339124;28;20041;-64
2022/01/28 04:31:10;;;;;;;22.30;3.72;;;;;;;5.43;100.00;102194.03;8338448;28;20048;-64
2022/01/28 04:35:11;;;;;;;17.73;2.28;;;;;;;5.50;100.00;102184.78;8337743;28;20038;-64
2022/01/28 04:39:20;;;;;;;15.65;2.97;;;;;;;5.49;100.00;102199.13;8338954;28;20033;-64
2022/01/28 04:43:28;;;;;;;17.85;2.92;;;;;;;5.46;100.00;102185.84;8338681;28;20493;-64
2022/01/28 04:47:44;;;;;;;17.17;2.38;;;;;;;5.44;100.00;102199.34;8338102;28;20043;-64
2022/01/28 04:52:33;;;;;;;15.35;2.30;;;;;;;5.27;100.00;102182.22;8337862;28;20048;-64
2022/01/28 04:56:24;;;;;;;11.43;2.20;;;;;;;5.16;100.00;102197.91;8337782;28;20045;-64
2022/01/28 05:00:39;;;;;;;18.58;2.60;;;;;;;5.31;100.00;102206.16;8335412;28;20038;-64
2022/01/28 05:04:54;;;;;;;9.93;2.25;;;;;;;5.20;100.00;102207.56;8312805;28;20049;-64
2022/01/28 05:30:24;;;;;;;13.98;2.70;;;;;;;5.33;100.00;102236.47;8360953;28;20044;-64
2022/01/28 05:34:27;;;;;;;16.13;3.17;;;;;;;5.26;100.00;102239.47;8359566;28;20298;-64
2022/01/28 05:38:28;;;;;;;35.35;5.30;;;;;;;5.35;100.00;102244.44;8358205;28;20037;-64
2022/01/28 05:42:28;;;;;;;25.63;5.05;;;;;;;5.40;100.00;102247.81;8362725;28;20443;-64
2022/01/28 05:46:29;;;;;;;20.02;3.90;;;;;;;5.36;100.00;102239.00;8362045;28;20040;-64
2022/01/28 05:50:30;;;;;;;16.55;4.18;;;;;;;5.42;100.00;102245.91;8359889;28;20449;-64
2022/01/28 05:54:30;;;;;;;24.77;3.90;;;;;;;5.34;100.00;102250.75;8345433;28;20037;-64
2022/01/28 05:58:30;;;;;;;19.77;4.63;;;;;;;5.37;100.00;102253.31;8321156;28;20116;-64
2022/01/28 06:02:31;;;;;;;21.65;4.38;;;;;;;5.52;100.00;102255.31;8361609;28;20034;-64
2022/01/28 06:06:32;;;;;;;18.27;4.00;;;;;;;5.56;100.00;102271.22;8363826;28;20045;-64
2022/01/28 06:10:33;;;;;;;40.08;6.07;;;;;;;5.73;100.00;102267.78;8356986;28;20045;-64
2022/01/28 06:14:33;;;;;;;20.30;4.70;;;;;;;5.67;100.00;102271.63;8336695;28;20049;-64
2022/01/28 06:18:33;;;;;;;16.95;4.45;;;;;;;5.56;100.00;102286.44;8342513;28;20402;-64
2022/01/28 06:22:42;;;;;;;25.55;5.13;;;;;;;5.49;100.00;102290.34;8331442;28;20469;-64
2022/01/28 06:26:43;;;;;;;22.55;5.57;;;;;;;5.47;100.00;102295.75;8319679;28;20418;-64
2022/01/28 06:30:43;;;;;;;19.73;4.95;;;;;;;5.49;100.00;102307.28;8298783;28;20068;-64
2022/01/28 06:34:44;;;;;;;18.85;5.50;;;;;;;5.44;100.00;102303.06;8298810;28;20034;-64
2022/01/28 06:38:44;;;;;;;20.77;5.35;;;;;;;5.43;100.00;102318.25;8281379;28;20125;-64
2022/01/28 06:42:45;;;;;;;22.15;4.60;;;;;;;5.37;100.00;102331.06;8294250;28;20081;-64
2022/01/28 06:46:45;;;;;;;19.70;4.68;;;;;;;5.40;100.00;102333.63;8302065;28;20053;-64
2022/01/28 06:50:46;;;;;;;29.55;5.40;;;;;;;5.38;100.00;102331.00;8326065;28;20409;-64
2022/01/28 06:54:46;;;;;;;29.20;6.15;;;;;;;5.32;100.00;102333.06;8332124;28;20041;-63
2022/01/28 06:58:47;;;;;;;24.98;4.38;;;;;;;5.41;100.00;102340.72;8326844;28;20088;-64
2022/01/28 07:02:49;;;;;;;37.97;6.07;;;;;;;5.38;100.00;102340.84;8294607;28;20030;-63
2022/01/28 07:06:50;;;;;;;28.38;4.45;;;;;;;5.24;100.00;102337.84;8328033;28;20061;-64
2022/01/28 07:10:51;;;;;;;27.13;4.53;;;;;;;5.14;100.00;102360.63;8320418;28;20053;-64
2022/01/28 07:14:53;;;;;;;20.35;4.00;;;;;;;5.33;100.00;102364.28;8320483;28;20041;-64
2022/01/28 07:18:53;;;;;;;28.45;5.18;;;;;;;5.26;100.00;102360.13;8319632;28;20041;-64
2022/01/28 07:22:54;;;;;;;20.85;4.82;;;;;;;5.38;100.00;102373.91;8324074;28;20029;-64
2022/01/28 07:26:54;;;;;;;27.17;4.70;;;;;;;5.42;100.00;102369.28;8324008;28;20068;-64
2022/01/28 07:30:55;;;;;;;27.85;5.63;;;;;;;5.37;100.00;102376.66;8323718;28;20458;-64
2022/01/28 07:34:56;;;;;;;26.65;5.55;;;;;;;5.42;100.00;102385.38;8322234;28;20069;-64
2022/01/28 07:38:56;;;;;;;28.35;6.18;;;;;;;5.48;100.00;102386.00;8323267;28;20033;-64
2022/01/28 07:42:57;;;;;;;23.55;6.78;;;;;;;5.63;100.00;102389.88;8321506;28;20072;-64
2022/01/28 07:46:57;;;;;;;37.05;7.07;;;;;;;5.70;100.00;102389.53;8321689;28;20477;-64
2022/01/28 07:50:58;;;;;;;24.58;6.90;;;;;;;5.71;100.00;102398.47;8322912;28;20088;-64
2022/01/28 07:54:58;;;;;;;36.47;7.70;;;;;;;5.81;100.00;102394.47;8322337;28;20041;-63
2022/01/28 07:58:59;;;;;;;28.13;7.05;;;;;;;5.81;100.00;102402.53;8322240;28;20125;-64
2022/01/28 08:02:59;;;;;;;28.90;8.50;;;;;;;5.99;100.00;102404.47;8323155;28;20146;-64
2022/01/28 08:07:00;;;;;;;30.67;8.00;;;;;;;6.07;100.00;102402.31;8326163;28;20033;-64
2022/01/28 08:11:00;;;;;;;29.38;7.78;;;;;;;6.16;100.00;102412.66;8321213;28;20049;-64
2022/01/28 08:15:00;;;;;;;30.83;8.23;;;;;;;6.21;100.00;102399.91;8333571;28;20468;-64
2022/01/28 08:19:01;;;;;;;31.50;8.27;;;;;;;6.34;100.00;102406.47;8288801;28;20045;-63
2022/01/28 08:23:03;;;;;;;27.67;7.20;;;;;;;6.48;100.00;102412.13;8320964;28;20033;-64
2022/01/28 08:27:04;;;;;;;29.67;7.43;;;;;;;6.71;100.00;102428.06;8321199;28;20045;-64
2022/01/28 08:31:04;;;;;;;29.48;7.32;;;;;;;6.79;100.00;102420.53;8322426;28;20091;-64
2022/01/28 08:35:06;;;;;;;26.63;7.97;;;;;;;6.87;100.00;102429.13;8321606;28;20068;-64
2022/01/28 08:39:54;;;;;;;30.15;8.10;;;;;;;7.12;100.00;102435.13;8322589;28;20047;-64
2022/01/28 08:43:54;;;;;;;21.95;8.10;;;;;;;7.23;100.00;102443.53;8321373;28;20045;-64
2022/01/28 08:47:54;;;;;;;32.63;9.47;;;;;;;7.21;100.00;102444.56;8321735;28;20064;-64
2022/01/28 08:51:55;;;;;;;27.10;9.60;;;;;;;7.46;99.79;102454.09;8321635;28;20272;-64
2022/01/28 08:55:55;;;;;;;22.23;8.40;;;;;;;7.57;98.69;102454.44;8321284;28;20124;-64
2022/01/28 08:59:56;;;;;;;24.27;9.20;;;;;;;7.87;98.12;102447.53;8322139;28;20088;-64
2022/01/28 09:03:56;;;;;;;38.20;9.48;;;;;;;8.22;95.63;102447.59;8319649;28;20037;-64
2022/01/28 09:07:57;;;;;;;29.65;8.98;;;;;;;9.58;88.67;102441.91;8320239;28;20061;-64
2022/01/28 09:16:11;;;;;;;21.67;7.07;;;;;;;11.48;79.03;102436.47;8376056;27;20397;-64
2022/01/28 09:20:11;;;;;;;23.83;7.15;;;;;;;12.22;75.60;102434.19;8328647;28;20037;-64
2022/01/28 09:24:12;;;;;;;31.17;6.30;;;;;;;12.73;73.33;102442.31;8336588;28;20038;-64
2022/01/28 09:28:12;;;;;;;25.92;6.53;;;;;;;11.33;76.00;102462.69;8316929;28;20033;-64
2022/01/28 09:32:12;;;;;;;23.48;6.13;;;;;;;9.89;81.64;102458.09;8314730;28;20084;-64
2022/01/28 09:36:13;;;;;;;27.33;8.43;;;;;;;9.09;87.06;102464.50;8316348;28;20064;-64
2022/01/28 09:40:14;;;;;;;20.77;6.88;;;;;;;8.93;87.15;102482.44;8335886;28;20040;-64
2022/01/28 09:44:17;;;;;;;20.10;6.03;;;;;;;8.33;89.91;102478.47;8322636;28;20037;-64
2022/01/28 09:48:19;;;;;;;32.63;8.00;;;;;;;8.07;91.58;102495.03;8316579;28;20057;-64
2022/01/28 09:52:19;;;;;;;28.23;8.07;;;;;;;8.08;92.55;102489.56;8322047;28;20037;-64
2022/01/28 09:56:20;;;;;;;20.13;6.78;;;;;;;9.31;88.29;102489.34;8314657;28;20502;-64
2022/01/28 10:00:23;;;;;;;23.33;6.10;;;;;;;9.67;83.99;102495.41;8317024;28;20520;-64
2022/01/28 10:04:23;;;;;;;20.55;6.28;;;;;;;9.03;85.21;102494.53;8350596;28;20044;-64
2022/01/28 10:08:26;;;;;;;18.60;5.90;;;;;;;10.65;81.99;102493.19;8337579;28;20042;-64
2022/01/28 10:12:35;;;;;;;18.73;5.32;;;;;;;12.68;73.82;102490.63;8314844;28;20041;-65
2022/01/28 10:16:36;;;;;;;14.55;4.90;;;;;;;13.28;69.83;102489.06;8315893;28;20072;-65
2022/01/28 10:20:43;;;;;;;27.05;6.03;;;;;;;14.04;67.85;102495.19;8324278;28;20042;-65
2022/01/28 10:24:44;;;;;;;16.15;5.15;;;;;;;13.70;68.07;102513.13;8286048;28;20038;-65
2022/01/28 10:28:53;;;;;;;14.35;4.63;;;;;;;14.48;65.49;102511.78;8269126;28;20132;-66
2022/01/28 10:33:16;;;;;;;12.40;5.20;;;;;;;13.13;69.71;102519.16;8288071;28;20100;-65
2022/01/28 10:41:29;;;;;;;20.10;4.53;;;;;;;14.93;65.45;102505.50;8378605;27;20895;-64
2022/01/28 10:45:31;;;;;;;23.60;5.03;;;;;;;12.79;69.53;102496.19;8355670;28;20476;-64
2022/01/28 10:49:34;;;;;;;14.40;4.65;;;;;;;13.35;70.14;102500.34;8350843;28;20464;-66
2022/01/28 10:53:35;;;;;;;23.88;5.03;;;;;;;14.14;65.57;102501.69;8338271;28;21353;-65
2022/01/28 10:57:35;;;;;;;18.75;4.80;;;;;;;12.23;70.51;102501.03;8330196;28;20049;-65
2022/01/28 11:01:36;;;;;;;18.58;4.35;;;;;;;12.94;71.24;102491.53;8333541;28;20072;-65
2022/01/28 11:05:38;;;;;;;16.08;5.22;;;;;;;11.33;74.80;102497.91;8329497;28;20501;-65
2022/01/28 11:09:40;;;;;;;21.33;5.30;;;;;;;11.05;76.49;102497.91;8339898;28;20404;-65
2022/01/28 11:13:41;;;;;;;26.92;5.05;;;;;;;10.09;79.76;102503.78;8333503;28;20051;-65
2022/01/28 11:17:42;;;;;;;28.38;5.18;;;;;;;9.55;81.97;102507.75;8344023;28;20041;-65
2022/01/28 11:30:25;;;;;;;8.82;3.88;;;;;;;13.86;66.63;102496.56;8383133;27;20929;-64
2022/01/28 11:34:28;;;;;;;17.33;4.22;;;;;;;14.94;65.07;102504.50;8379827;28;20033;-64
2022/01/28 11:42:42;;;;;;;22.38;3.55;;;;;;;14.04;63.04;102514.22;8448683;27;20645;-64
2022/01/28 11:46:45;;;;;;;16.83;4.15;;;;;;;14.31;63.06;102512.19;8413988;28;20094;-64
2022/01/28 11:50:52;;;;;;;11.63;3.50;;;;;;;14.63;62.18;102488.81;8428609;28;20094;-64
2022/01/28 11:54:53;;;;;;;17.33;4.15;;;;;;;14.21;63.56;102486.63;8368446;28;20481;-64
2022/01/28 11:58:58;;;;;;;12.43;2.92;;;;;;;14.50;61.55;102484.44;8405345;28;20044;-64
2022/01/28 12:03:00;;;;;;;11.18;2.90;;;;;;;14.30;61.31;102480.50;8421019;28;20074;-64
2022/01/28 12:07:04;;;;;;;12.80;3.53;;;;;;;12.89;66.71;102474.69;8445003;27;20135;-64
2022/01/28 12:11:07;;;;;;;15.32;3.63;;;;;;;12.16;67.80;102476.16;8387831;28;21617;-64
2022/01/28 12:15:12;;;;;;;15.88;3.33;;;;;;;12.37;68.42;102462.97;8396903;28;20043;-64
2022/01/28 12:19:20;;;;;;;13.18;3.08;;;;;;;13.38;64.52;102462.09;8395348;28;20040;-66
2022/01/28 12:23:25;;;;;;;11.77;2.55;;;;;;;13.54;62.62;102452.72;8391841;28;20040;-64
2022/01/28 12:27:33;;;;;;;23.48;3.78;;;;;;;13.81;63.67;102458.81;8393795;28;20036;-64
2022/01/28 12:31:34;;;;;;;12.38;3.13;;;;;;;12.79;64.92;102457.31;8385607;28;20044;-65
2022/01/28 12:35:36;;;;;;;10.27;2.53;;;;;;;12.33;67.83;102448.78;8391278;28;20063;-65
2022/01/28 12:39:43;;;;;;;18.35;3.20;;;;;;;12.86;67.23;102448.63;8400720;28;20045;-65
2022/01/28 12:43:44;;;;;;;15.27;3.60;;;;;;;11.93;69.57;102455.16;8385670;28;20532;-64
2022/01/28 12:47:46;;;;;;;11.60;3.30;;;;;;;10.60;72.32;102449.31;8402945;28;20043;-64
2022/01/28 12:51:46;;;;;;;27.73;4.57;;;;;;;10.95;72.03;102457.97;8397776;28;20286;-64
2022/01/28 12:55:46;;;;;;;28.35;4.57;;;;;;;12.11;68.36;102447.63;8365196;28;20042;-64
2022/01/28 12:59:48;;;;;;;22.50;3.60;;;;;;;13.25;65.96;102442.22;8390777;28;20445;-64
2022/01/28 13:04:04;;;;;;;13.40;3.50;;;;;;;13.88;63.75;102442.06;8369868;28;20624;-65
2022/01/28 13:08:36;;;;;;;14.48;3.53;;;;;;;12.63;65.33;102438.50;8379222;28;20527;-65
2022/01/28 13:12:28;;;;;;;12.52;4.75;;;;;;;11.13;71.54;102436.00;8373027;28;20040;-65
2022/01/28 13:16:31;;;;;;;18.88;7.40;;;;;;;10.37;75.28;102432.75;8361413;28;20044;-65
2022/01/28 13:20:35;;;;;;;14.23;5.57;;;;;;;9.83;77.00;102435.00;8373292;28;20123;-64
2022/01/28 13:24:36;;;;;;;15.15;5.30;;;;;;;9.71;77.59;102429.44;8380109;28;20044;-65
2022/01/28 13:28:36;;;;;;;19.83;4.80;;;;;;;9.53;77.77;102422.41;8383384;28;20039;-65
2022/01/28 13:32:40;;;;;;;10.50;4.00;;;;;;;9.44;77.41;102418.41;8372226;28;20036;-64
2022/01/28 13:36:46;;;;;;;14.97;4.07;;;;;;;9.61;78.88;102412.88;8347712;28;20135;-64
2022/01/28 13:40:46;;;;;;;17.05;4.57;;;;;;;9.61;78.43;102414.75;8375580;28;20461;-64
2022/01/28 13:44:49;;;;;;;17.55;4.72;;;;;;;9.65;78.75;102409.06;8364596;28;20055;-65
2022/01/28 13:48:49;;;;;;;17.60;5.00;;;;;;;9.80;78.22;102407.31;8371752;28;20500;-64
2022/01/28 13:53:06;;;;;;;17.20;4.60;;;;;;;10.26;76.78;102390.13;8373643;28;20497;-64
2022/01/28 13:57:09;;;;;;;9.55;2.25;;;;;;;10.28;73.59;102379.22;8367835;28;20036;-64
2022/01/28 14:01:12;;;;;;;14.13;2.20;;;;;;;10.23;73.67;102384.91;8356867;28;20048;-65
2022/01/28 14:05:12;;;;;;;14.35;3.95;;;;;;;10.12;74.71;102376.56;8343973;28;20040;-64
2022/01/28 14:09:17;;;;;;;10.45;3.97;;;;;;;9.88;76.59;102369.88;8362068;28;20123;-64
2022/01/28 14:13:18;;;;;;;;;;;;;;;9.80;76.54;102366.78;8363066;28;20055;-64
2022/01/28 14:17:19;;;;;;;24.27;4.68;;;;;;;9.63;76.12;102369.59;8370734;28;19931;-64
2022/01/28 14:21:19;;;;;;;19.30;5.22;;;;;;;9.64;78.85;102371.34;8349365;28;21100;-64
2022/01/28 14:25:21;;;;;;;16.77;5.03;;;;;;;9.48;79.91;102373.19;8363386;28;20040;-65
2022/01/28 14:29:25;;;;;;;18.98;4.97;;;;;;;9.30;81.76;102371.56;8346792;28;20025;-65
2022/01/28 14:33:26;;;;;;;;;;;;;;;9.18;81.55;102372.25;8357252;28;20377;-65
2022/01/28 14:37:27;;;;;;;18.77;4.40;;;;;;;9.06;81.69;102375.63;8368864;28;19925;-64
2022/01/28 14:41:27;;;;;;;27.13;5.60;;;;;;;8.97;81.37;102378.84;8346403;28;20051;-65
2022/01/28 14:45:29;;;;;;;19.50;5.28;;;;;;;8.92;82.15;102391.69;8381632;28;20036;-65
2022/01/28 14:49:29;;;;;;;22.55;5.55;;;;;;;8.83;82.91;102376.03;8371635;28;20044;-65
2022/01/28 14:53:30;;;;;;;21.60;5.90;;;;;;;8.79;83.47;102379.84;8369900;28;20178;-65
2022/01/28 14:57:30;;;;;;;20.73;6.50;;;;;;;8.77;83.55;102392.53;8365667;28;20037;-65
2022/01/28 15:01:31;;;;;;;26.95;8.15;;;;;;;8.66;84.75;102386.88;8361971;28;20063;-65
2022/01/28 15:05:34;;;;;;;26.15;7.90;;;;;;;8.59;85.06;102388.13;8376770;28;20474;-65
2022/01/28 15:09:40;;;;;;;18.47;6.50;;;;;;;8.56;85.82;102388.31;8370077;28;20059;-65
2022/01/28 15:13:41;;;;;;;23.90;7.93;;;;;;;8.58;85.76;102407.97;8346772;28;20408;-65
2022/01/28 15:17:41;;;;;;;28.30;8.90;;;;;;;8.56;85.94;102410.75;8363444;28;20044;-65
2022/01/28 15:21:44;;;;;;;26.17;9.25;;;;;;;8.62;84.97;102407.72;8361052;28;20519;-65
2022/01/28 15:25:45;;;;;;;24.40;9.38;;;;;;;8.57;85.79;102411.63;8363275;28;20044;-65
2022/01/28 15:29:49;;;;;;;24.15;9.25;;;;;;;8.51;86.15;102402.03;8361196;28;20051;-66
2022/01/28 15:36:00;;;;;;;22.60;10.98;;;;;;;8.38;86.77;102410.88;8363538;28;20128;-66
2022/01/28 15:38:09;;;;;;;31.40;10.80;;;;;;;8.25;86.22;102420.50;8378015;28;20579;-66
2022/01/28 15:42:10;;;;;;;27.92;10.63;;;;;;;8.19;86.83;102420.78;8361451;28;20571;-65
2022/01/28 15:46:11;;;;;;;23.60;12.15;;;;;;;8.16;86.94;102410.19;8345189;28;20045;-65
2022/01/28 15:50:12;;;;;;;34.80;12.73;;;;;;;8.17;87.23;102411.94;8361037;28;20048;-65
2022/01/28 15:54:12;;;;;;;29.23;13.88;;;;;;;8.16;88.16;102415.56;8371070;28;20048;-64
2022/01/28 15:58:13;;;;;;;40.97;18.55;;;;;;;8.23;88.36;102408.97;8387273;28;20484;-64
2022/01/28 16:02:13;;;;;;;40.63;16.25;;;;;;;8.09;89.45;102415.88;8380392;28;20037;-65
2022/01/28 16:06:13;;;;;;;40.22;18.95;;;;;;;7.93;91.14;102423.00;8381516;28;20058;-65
2022/01/28 16:10:20;;;;;;;39.22;18.30;;;;;;;7.76;92.69;102433.75;8381692;28;20088;-65
2022/01/28 16:14:32;;;;;;;35.38;17.40;;;;;;;7.64;93.25;102434.38;8384024;28;20047;-65
2022/01/28 16:18:32;;;;;;;36.08;17.95;;;;;;;7.64;92.52;102437.06;8371689;28;20041;-65
2022/01/28 16:22:33;;;;;;;35.72;16.45;;;;;;;7.65;92.74;102429.84;8367537;28;20416;-65
2022/01/28 16:26:34;;;;;;;37.35;16.98;;;;;;;7.58;92.16;102434.66;8369664;28;20468;-65
2022/01/28 16:30:35;;;;;;;39.78;16.77;;;;;;;7.57;91.91;102432.91;8392760;28;20056;-65
2022/01/28 16:34:35;;;;;;;39.42;16.38;;;;;;;7.49;92.50;102439.59;8373535;28;20036;-65
2022/01/28 16:38:36;;;;;;;45.90;18.35;;;;;;;7.37;93.43;102430.31;8378114;28;20431;-65
2022/01/28 16:42:41;;;;;;;40.75;19.33;;;;;;;7.30;93.18;102434.25;8376110;28;20043;-65
2022/01/28 16:46:44;;;;;;;42.75;18.77;;;;;;;7.27;93.56;102407.50;8377134;28;20039;-65
2022/01/28 16:50:45;;;;;;;50.92;20.13;;;;;;;7.15;94.11;102416.16;8369825;28;20131;-65
2022/01/28 16:54:46;;;;;;;37.97;19.05;;;;;;;6.96;95.88;102417.97;8368505;28;20044;-65
2022/01/28 16:58:49;;;;;;;43.72;19.60;;;;;;;6.93;96.18;102415.41;8388358;28;20482;-65
2022/01/28 17:02:50;;;;;;;40.97;18.15;;;;;;;6.98;96.63;102416.06;8372826;28;20070;-65
2022/01/28 17:06:51;;;;;;;35.25;16.83;;;;;;;6.81;96.77;102413.28;8369194;28;20290;-65
2022/01/28 17:11:14;;;;;;;33.25;17.85;;;;;;;6.76;97.40;102422.50;8365538;28;20040;-65
2022/01/28 17:15:12;;;;;;;31.77;16.75;;;;;;;6.58;98.09;102416.13;8372225;28;20041;-65
2022/01/28 17:19:12;;;;;;;36.10;17.55;;;;;;;6.54;98.30;102414.53;8380986;28;20067;-65
2022/01/28 17:23:13;;;;;;;31.60;17.23;;;;;;;6.55;98.21;102410.91;8390546;28;20036;-65
2022/01/28 17:27:13;;;;;;;30.67;14.55;;;;;;;6.61;98.28;102415.13;8378948;28;20036;-65
2022/01/28 17:31:14;;;;;;;38.40;16.05;;;;;;;6.53;98.38;102418.19;8395121;28;20119;-65
2022/01/28 17:35:17;;;;;;;38.88;15.55;;;;;;;6.47;98.84;102420.25;8394833;28;20036;-65
2022/01/28 17:39:17;;;;;;;51.22;24.35;;;;;;;6.42;99.64;102420.44;8398618;28;20041;-65
2022/01/28 17:43:18;;;;;;;33.35;15.98;;;;;;;6.38;99.52;102401.84;8378747;28;20060;-65
2022/01/28 17:47:18;;;;;;;38.80;17.42;;;;;;;6.34;100.00;102395.72;8372263;28;20131;-65
2022/01/28 17:51:18;;;;;;;47.08;21.60;;;;;;;6.16;100.00;102383.09;8393857;28;20028;-65
2022/01/28 17:55:20;;;;;;;39.22;18.83;;;;;;;6.09;100.00;102384.31;8369393;28;20441;-65
2022/01/28 17:59:21;;;;;;;36.05;16.05;;;;;;;6.23;100.00;102375.66;8370352;28;20041;-65
2022/01/28 18:03:21;;;;;;;31.33;13.75;;;;;;;6.28;99.78;102379.88;8377144;28;20059;-65
2022/01/28 18:07:21;;;;;;;27.95;12.52;;;;;;;6.28;100.00;102374.50;8394667;28;20461;-66
2022/01/28 18:11:22;;;;;;;37.92;18.20;;;;;;;6.30;100.00;102372.66;8382745;28;20058;-66
2022/01/28 18:15:23;;;;;;;41.58;15.95;;;;;;;6.28;100.00;102365.59;8380375;28;20051;-66
2022/01/28 18:19:23;;;;;;;38.22;17.20;;;;;;;6.25;100.00;102365.75;8390042;28;20042;-66
2022/01/28 18:23:24;;;;;;;36.97;17.38;;;;;;;6.20;100.00;102363.25;8379484;28;20040;-66
2022/01/28 18:27:24;;;;;;;38.17;17.52;;;;;;;6.22;100.00;102358.66;8392297;28;20097;-66
2022/01/28 18:31:24;;;;;;;29.98;15.23;;;;;;;6.15;100.00;102359.88;8361075;28;20102;-66
2022/01/28 18:35:25;;;;;;;30.10;14.75;;;;;;;6.19;100.00;102358.81;8391704;28;20052;-66
2022/01/28 18:39:25;;;;;;;34.03;14.02;;;;;;;6.15;100.00;102365.25;8393895;28;20040;-66
2022/01/28 18:43:34;;;;;;;31.58;14.02;;;;;;;6.11;100.00;102366.34;8374151;28;20499;-66
2022/01/28 18:47:34;;;;;;;30.73;13.63;;;;;;;6.00;100.00;102360.56;8364307;28;20036;-66
2022/01/28 18:51:35;;;;;;;26.70;12.88;;;;;;;6.01;100.00;102351.59;8390716;28;20039;-66
2022/01/28 18:55:36;;;;;;;30.75;13.45;;;;;;;6.00;100.00;102344.44;8357312;28;20040;-66
2022/01/28 18:59:37;;;;;;;39.40;17.92;;;;;;;6.08;100.00;102345.00;8379448;28;20038;-66
2022/01/28 19:03:37;;;;;;;35.97;18.95;;;;;;;6.17;100.00;102344.59;8376209;28;20040;-66
2022/01/28 19:07:40;;;;;;;32.53;15.38;;;;;;;6.19;100.00;102342.69;8389768;28;20499;-66
2022/01/28 19:11:42;;;;;;;31.85;14.25;;;;;;;6.07;100.00;102337.84;8387966;28;20043;-66
2022/01/28 19:15:45;;;;;;;31.50;13.25;;;;;;;5.98;100.00;102338.31;8369991;28;20032;-66
2022/01/28 19:19:46;;;;;;;30.02;13.05;;;;;;;5.86;100.00;102338.81;8363557;28;20040;-65
2022/01/28 19:23:47;;;;;;;33.05;13.88;;;;;;;5.78;100.00;102319.44;8364383;28;20040;-65
2022/01/28 19:27:47;;;;;;;33.15;15.20;;;;;;;5.71;100.00;102320.66;8359760;28;20265;-65
2022/01/28 19:31:48;;;;;;;32.55;13.80;;;;;;;5.97;100.00;102320.44;8370098;28;20032;-65
2022/01/28 19:35:48;;;;;;;33.33;13.80;;;;;;;6.03;100.00;102320.16;8340725;28;20878;-65
2022/01/28 19:39:49;;;;;;;33.40;13.82;;;;;;;6.13;100.00;102316.09;8384470;28;20032;-65
2022/01/28 19:43:49;;;;;;;39.13;14.05;;;;;;;6.29;100.00;102306.44;8382509;28;20036;-65
2022/01/28 19:47:51;;;;;;;29.45;14.15;;;;;;;6.65;100.00;102311.94;8379315;28;20358;-65
2022/01/28 19:51:51;;;;;;;39.20;16.23;;;;;;;6.81;99.87;102310.25;8384037;28;20032;-65
2022/01/28 19:55:51;;;;;;;31.23;16.05;;;;;;;6.98;98.83;102313.03;8362330;28;20068;-65